createdAt,value
2022-12-15T00:01:44.735Z,41.83
2022-12-15T00:04:29.599Z,35.17
2022-12-15T00:07:14.801Z,35.97
2022-12-15T00:09:59.684Z,34.85
2022-12-15T00:12:44.672Z,42.65
2022-12-15T00:15:29.454Z,31.27
2022-12-15T00:18:14.587Z,30.88
2022-12-15T00:20:59.676Z,33.28
2022-12-15T00:23:44.649Z,33.30
2022-12-15T00:26:29.938Z,37.83
2022-12-15T00:29:15.411Z,44.45
2022-12-15T00:32:00.432Z,46.95
2022-12-15T00:34:45.554Z,48.60
2022-12-15T00:37:30.466Z,46.55
2022-12-15T00:39:59.553Z,41.08
2022-12-15T00:42:28.624Z,42.17
2022-12-15T00:44:55.837Z,43.47
2022-12-15T00:47:22.234Z,39.10
2022-12-15T00:50:07.339Z,35.78
2022-12-15T00:52:52.209Z,33.80
2022-12-15T00:55:37.122Z,34.97
2022-12-15T00:58:22.199Z,33.53
2022-12-15T01:01:07.222Z,30.95
2022-12-15T01:03:52.421Z,34.65
2022-12-15T01:06:38.130Z,34.15
2022-12-15T01:09:24.036Z,31.60
2022-12-15T01:12:09.004Z,33.10
2022-12-15T01:14:53.807Z,32.55
2022-12-15T01:17:38.901Z,32.92
2022-12-15T01:20:18.586Z,33.75
2022-12-15T01:22:55.010Z,32.20
2022-12-15T01:25:22.286Z,32.78
2022-12-15T01:27:48.883Z,31.83
2022-12-15T01:30:17.795Z,33.45
2022-12-15T01:32:46.141Z,33.78
2022-12-15T01:35:12.794Z,35.63
2022-12-15T01:37:39.329Z,36.15
2022-12-15T01:40:24.968Z,37.25
2022-12-15T01:42:51.965Z,36.38
2022-12-15T01:45:24.382Z,36.47
2022-12-15T01:47:51.813Z,22.33
2022-12-15T01:50:18.915Z,30.08
2022-12-15T01:52:45.515Z,30.33
2022-12-15T01:55:17.349Z,42.47
2022-12-15T01:57:43.744Z,34.08
2022-12-15T02:00:10.790Z,39.17
2022-12-15T02:02:40.350Z,34.85
2022-12-15T02:05:07.722Z,34.33
2022-12-15T02:07:34.039Z,34.53
2022-12-15T02:10:01.396Z,35.17
2022-12-15T02:12:36.987Z,34.95
2022-12-15T02:15:35.877Z,40.67
2022-12-15T02:18:21.016Z,37.42
2022-12-15T02:21:09.895Z,33.00
2022-12-15T02:23:54.982Z,38.95
2022-12-15T02:26:27.358Z,38.38
2022-12-15T02:28:59.807Z,43.20
2022-12-15T02:31:50.509Z,34.80
2022-12-15T02:34:23.683Z,36.63
2022-12-15T02:36:54.185Z,39.20
2022-12-15T02:39:20.537Z,39.95
2022-12-15T02:41:47.650Z,36.75
2022-12-15T02:44:19.500Z,38.10
2022-12-15T02:46:51.867Z,35.58
2022-12-15T02:49:18.127Z,36.28
2022-12-15T02:51:55.799Z,34.53
2022-12-15T02:54:50.065Z,39.70
2022-12-15T02:57:24.454Z,37.63
2022-12-15T02:59:55.450Z,36.78
2022-12-15T03:02:24.286Z,37.72
2022-12-15T03:04:50.629Z,38.30
2022-12-15T03:07:16.914Z,40.58
2022-12-15T03:09:43.243Z,39.13
2022-12-15T03:12:10.433Z,42.30
2022-12-15T03:14:36.732Z,42.58
2022-12-15T03:17:04.130Z,40.35
2022-12-15T03:19:30.480Z,42.05
2022-12-15T03:21:56.782Z,48.13
2022-12-15T03:24:23.130Z,38.08
2022-12-15T03:26:50.109Z,42.22
2022-12-15T03:29:17.452Z,39.53
2022-12-15T03:31:44.354Z,43.33
2022-12-15T03:34:11.081Z,42.40
2022-12-15T03:36:37.436Z,45.55
2022-12-15T03:39:04.099Z,37.13
2022-12-15T03:41:30.449Z,43.17
2022-12-15T03:43:56.778Z,39.92
2022-12-15T03:46:23.173Z,40.60
2022-12-15T03:48:50.545Z,36.63
2022-12-15T03:51:16.851Z,35.10
2022-12-15T03:53:43.242Z,34.58
2022-12-15T03:56:09.548Z,33.70
2022-12-15T03:58:35.905Z,36.60
2022-12-15T04:01:20.883Z,37.38
2022-12-15T04:03:47.458Z,31.70
2022-12-15T04:06:13.776Z,32.40
2022-12-15T04:08:40.078Z,31.40
2022-12-15T04:11:06.367Z,33.92
2022-12-15T04:13:32.973Z,33.45
2022-12-15T04:16:01.309Z,33.58
2022-12-15T04:18:27.644Z,30.63
2022-12-15T04:20:53.978Z,33.70
2022-12-15T04:23:20.322Z,34.35
2022-12-15T04:26:05.505Z,31.13
2022-12-15T04:28:50.554Z,31.33
2022-12-15T04:31:46.631Z,34.63
2022-12-15T04:34:33.548Z,32.85
2022-12-15T04:37:18.716Z,34.80
2022-12-15T04:40:08.977Z,37.63
2022-12-15T04:42:55.483Z,34.25
2022-12-15T04:45:42.872Z,31.60
2022-12-15T04:48:28.151Z,36.85
2022-12-15T04:51:13.203Z,32.25
2022-12-15T04:53:58.296Z,30.88
2022-12-15T04:56:43.447Z,31.35
2022-12-15T04:59:28.382Z,35.50
2022-12-15T05:02:13.602Z,35.78
2022-12-15T05:04:58.859Z,34.72
2022-12-15T05:07:44.487Z,34.22
2022-12-15T05:10:29.433Z,34.35
2022-12-15T05:13:14.594Z,33.97
2022-12-15T05:15:59.839Z,31.48
2022-12-15T05:18:44.946Z,29.50
2022-12-15T05:21:29.723Z,28.92
2022-12-15T05:24:14.776Z,35.40
2022-12-15T05:26:59.943Z,28.05
2022-12-15T05:29:45.212Z,31.35
2022-12-15T05:32:13.236Z,34.47
2022-12-15T05:34:39.626Z,32.78
2022-12-15T05:37:06.900Z,31.17
2022-12-15T05:39:33.333Z,33.92
2022-12-15T05:41:59.680Z,38.60
2022-12-15T05:44:26.283Z,35.08
2022-12-15T05:46:52.688Z,42.45
2022-12-15T05:49:19.058Z,36.28
2022-12-15T05:51:46.683Z,34.88
2022-12-15T05:54:15.400Z,34.30
2022-12-15T05:56:41.832Z,36.22
2022-12-15T05:59:08.167Z,33.60
2022-12-15T06:01:35.499Z,33.60
2022-12-15T06:04:02.197Z,39.90
2022-12-15T06:06:28.487Z,59.33
2022-12-15T06:08:54.836Z,109.35
2022-12-15T06:11:22.158Z,64.70
2022-12-15T06:13:48.847Z,73.10
2022-12-15T06:16:16.525Z,90.63
2022-12-15T06:18:50.158Z,84.93
2022-12-15T06:21:24.631Z,75.57
2022-12-15T06:23:51.457Z,79.43
2022-12-15T06:26:17.770Z,106.90
2022-12-15T06:28:44.154Z,75.40
2022-12-15T06:31:11.288Z,146.07
2022-12-15T06:33:38.236Z,64.97
2022-12-15T06:36:05.580Z,99.78
2022-12-15T06:38:31.978Z,84.72
2022-12-15T06:40:59.170Z,142.68
2022-12-15T06:43:26.301Z,75.22
2022-12-15T06:45:52.693Z,79.22
2022-12-15T06:48:21.317Z,71.03
2022-12-15T06:50:47.671Z,75.88
2022-12-15T06:53:17.788Z,84.55
2022-12-15T06:55:44.298Z,68.18
2022-12-15T06:58:12.314Z,67.68
2022-12-15T07:00:39.320Z,55.15
2022-12-15T07:03:18.990Z,53.38
2022-12-15T07:05:45.897Z,54.50
2022-12-15T07:08:12.938Z,58.53
2022-12-15T07:10:40.260Z,62.78
2022-12-15T07:13:08.072Z,80.70
2022-12-15T07:15:34.425Z,103.72
2022-12-15T07:18:00.746Z,75.90
2022-12-15T07:20:28.948Z,135.63
2022-12-15T07:22:55.604Z,115.22
2022-12-15T07:25:22.115Z,163.98
2022-12-15T07:27:48.448Z,75.38
2022-12-15T07:30:15.176Z,73.45
2022-12-15T07:32:41.754Z,73.10
2022-12-15T07:35:08.481Z,101.15
2022-12-15T07:37:35.058Z,87.20
2022-12-15T07:40:01.427Z,73.65
2022-12-15T07:42:31.485Z,68.80
2022-12-15T07:44:58.176Z,75.65
2022-12-15T07:47:24.582Z,69.22
2022-12-15T07:49:50.900Z,84.45
2022-12-15T07:52:17.171Z,127.25
2022-12-15T07:54:43.487Z,78.30
2022-12-15T07:57:09.763Z,146.48
2022-12-15T07:59:37.156Z,91.43
2022-12-15T08:02:04.331Z,83.65
2022-12-15T08:04:31.231Z,66.32
2022-12-15T08:06:58.356Z,85.45
2022-12-15T08:09:25.121Z,60.40
2022-12-15T08:11:51.419Z,87.20
2022-12-15T08:14:18.833Z,94.57
2022-12-15T08:16:45.767Z,90.03
2022-12-15T08:19:13.461Z,152.15
2022-12-15T08:21:40.876Z,98.35
2022-12-15T08:24:08.174Z,108.75
2022-12-15T08:26:35.059Z,100.88
2022-12-15T08:29:31.924Z,111.65
2022-12-15T08:31:50.169Z,81.30
2022-12-15T08:34:16.545Z,95.00
2022-12-15T08:36:43.374Z,138.57
2022-12-15T08:39:09.787Z,94.82
2022-12-15T08:41:36.130Z,81.63
2022-12-15T08:44:02.507Z,141.02
2022-12-15T08:46:31.679Z,121.22
2022-12-15T08:48:58.898Z,77.72
2022-12-15T08:51:28.294Z,83.07
2022-12-15T08:53:55.860Z,110.90
2022-12-15T08:56:24.420Z,76.32
2022-12-15T08:58:55.203Z,76.93
2022-12-15T09:01:24.307Z,80.80
2022-12-15T09:03:52.589Z,91.22
2022-12-15T09:06:21.367Z,55.67
2022-12-15T09:08:50.533Z,59.33
2022-12-15T09:11:18.325Z,53.83
2022-12-15T09:13:46.714Z,59.97
2022-12-15T09:16:15.460Z,200.05
2022-12-15T09:18:43.657Z,93.93
2022-12-15T09:21:11.604Z,73.43
2022-12-15T09:23:39.721Z,78.85
2022-12-15T09:26:09.190Z,76.07
2022-12-15T09:28:37.920Z,78.53
2022-12-15T09:31:05.504Z,66.28
2022-12-15T09:33:33.762Z,59.90
2022-12-15T09:36:01.648Z,65.93
2022-12-15T09:38:29.198Z,59.22
2022-12-15T09:40:57.907Z,63.13
2022-12-15T09:43:36.344Z,59.53
2022-12-15T09:46:13.540Z,51.83
2022-12-15T09:48:42.956Z,49.42
2022-12-15T09:51:13.517Z,54.35
2022-12-15T09:53:56.843Z,54.10
2022-12-15T09:58:58.000Z,48.58
2022-12-15T10:01:38.157Z,54.63
2022-12-15T10:04:16.137Z,58.33
2022-12-15T10:06:50.569Z,56.72
2022-12-15T10:09:23.878Z,50.83
2022-12-15T10:11:56.091Z,54.03
2022-12-15T10:14:52.650Z,51.85
2022-12-15T10:17:22.541Z,58.97
2022-12-15T10:19:52.934Z,64.53
2022-12-15T10:22:25.995Z,55.75
2022-12-15T10:25:11.006Z,54.50
2022-12-15T10:27:53.633Z,48.63
2022-12-15T10:30:22.125Z,48.10
2022-12-15T10:32:51.277Z,46.55
2022-12-15T10:35:18.499Z,44.13
2022-12-15T10:37:45.618Z,45.10
2022-12-15T10:40:19.019Z,42.13
2022-12-15T10:45:44.661Z,35.25
2022-12-15T10:48:18.600Z,38.67
2022-12-15T10:50:46.423Z,39.40
2022-12-15T10:53:40.053Z,37.85
2022-12-15T10:56:08.926Z,41.55
2022-12-15T10:58:46.671Z,41.15
2022-12-15T11:01:19.514Z,41.13
2022-12-15T11:03:49.144Z,42.92
2022-12-15T11:06:19.717Z,46.58
2022-12-15T11:08:47.713Z,45.03
2022-12-15T11:11:45.134Z,50.22
2022-12-15T11:14:32.643Z,47.30
2022-12-15T11:16:59.954Z,44.33
2022-12-15T11:19:30.812Z,47.63
2022-12-15T11:22:01.677Z,47.80
2022-12-15T11:24:58.341Z,51.55
2022-12-15T11:27:32.522Z,48.58
2022-12-15T11:30:14.998Z,43.30
2022-12-15T11:32:43.572Z,48.50
2022-12-15T11:35:14.668Z,47.22
2022-12-15T11:37:47.119Z,51.83
2022-12-15T11:40:34.692Z,50.40
2022-12-15T11:43:11.401Z,47.38
2022-12-15T11:46:05.391Z,42.80
2022-12-15T11:48:49.364Z,46.55
2022-12-15T11:51:26.708Z,42.17
2022-12-15T11:53:55.621Z,43.00
2022-12-15T11:56:32.828Z,47.05
2022-12-15T11:59:14.305Z,40.88
2022-12-15T12:04:48.810Z,40.08
2022-12-15T12:07:27.507Z,41.92
2022-12-15T12:10:04.078Z,41.30
2022-12-15T12:12:36.127Z,40.35
2022-12-15T12:15:22.239Z,44.13
2022-12-15T12:17:52.689Z,45.13
2022-12-15T12:20:28.498Z,44.05
2022-12-15T12:23:06.252Z,42.60
2022-12-15T12:25:46.507Z,43.67
2022-12-15T12:28:29.268Z,41.22
2022-12-15T12:30:58.196Z,38.63
2022-12-15T12:33:31.295Z,43.22
2022-12-15T12:36:00.861Z,35.10
2022-12-15T12:38:36.959Z,42.22
2022-12-15T12:41:06.650Z,42.55
2022-12-15T12:43:39.737Z,41.58
2022-12-15T12:46:10.409Z,27.23
2022-12-15T12:48:38.215Z,40.72
2022-12-15T12:51:13.551Z,43.88
2022-12-15T12:53:40.804Z,39.80
2022-12-15T12:56:08.769Z,41.63
2022-12-15T12:58:41.934Z,38.65
2022-12-15T13:01:15.033Z,36.88
2022-12-15T13:03:42.795Z,34.88
2022-12-15T13:06:42.401Z,32.20
2022-12-15T13:09:29.873Z,33.92
2022-12-15T13:11:58.902Z,30.23
2022-12-15T13:14:30.796Z,35.42
2022-12-15T13:17:26.481Z,35.40
2022-12-15T13:20:00.072Z,32.65
2022-12-15T13:22:38.639Z,32.72
2022-12-15T13:25:24.654Z,29.90
2022-12-15T13:27:52.536Z,28.75
2022-12-15T13:30:20.016Z,34.38
2022-12-15T13:32:48.162Z,36.53
2022-12-15T13:35:26.944Z,35.75
2022-12-15T13:37:56.277Z,37.33
2022-12-15T13:40:23.827Z,35.50
2022-12-15T13:43:07.033Z,41.00
2022-12-15T13:45:41.935Z,43.08
2022-12-15T13:48:32.412Z,42.83
2022-12-15T13:51:06.674Z,49.53
2022-12-15T13:53:38.850Z,54.85
2022-12-15T13:56:12.224Z,59.08
2022-12-15T13:58:51.204Z,56.80
2022-12-15T14:01:20.699Z,59.33
2022-12-15T14:03:58.745Z,62.00
2022-12-15T14:06:31.379Z,58.13
2022-12-15T14:08:59.105Z,42.40
2022-12-15T14:14:24.105Z,57.58
2022-12-15T14:19:19.497Z,56.47
2022-12-15T14:22:00.021Z,58.08
2022-12-15T14:24:42.509Z,62.92
2022-12-15T14:27:09.648Z,62.22
2022-12-15T14:29:36.806Z,57.63
2022-12-15T14:32:04.200Z,62.20
2022-12-15T14:34:33.893Z,62.00
2022-12-15T14:37:03.542Z,62.33
2022-12-15T14:39:30.763Z,64.65
2022-12-15T14:41:59.728Z,63.63
2022-12-15T14:44:39.210Z,64.40
2022-12-15T14:47:15.823Z,60.60
2022-12-15T14:49:43.502Z,62.47
2022-12-15T14:52:19.181Z,65.45
2022-12-15T14:54:51.253Z,67.53
2022-12-15T14:57:22.606Z,69.05
2022-12-15T14:59:51.172Z,61.95
2022-12-15T15:02:22.818Z,73.88
2022-12-15T15:03:04.066Z,36.13
2022-12-15T15:03:12.649Z,39.70
2022-12-15T15:04:59.875Z,67.47
2022-12-15T15:07:27.330Z,64.18
2022-12-15T15:09:54.480Z,65.28
2022-12-15T15:12:22.304Z,67.22
2022-12-15T15:14:48.633Z,67.85
2022-12-15T15:17:26.164Z,62.75
2022-12-15T15:20:03.780Z,65.70
2022-12-15T15:22:33.853Z,65.32
2022-12-15T15:25:00.474Z,60.95
2022-12-15T15:27:35.124Z,61.78
2022-12-15T15:30:27.883Z,72.53
2022-12-15T15:32:54.436Z,68.30
2022-12-15T15:35:21.145Z,69.72
2022-12-15T15:37:47.624Z,72.35
2022-12-15T15:40:15.932Z,76.45
2022-12-15T15:42:43.077Z,75.15
2022-12-15T15:45:13.487Z,78.55
2022-12-15T15:47:47.079Z,89.07
2022-12-15T15:50:15.523Z,79.85
2022-12-15T15:52:43.123Z,73.75
2022-12-15T15:55:16.434Z,72.78
2022-12-15T15:57:42.914Z,70.80
2022-12-15T16:00:19.916Z,78.28
2022-12-15T16:02:47.547Z,77.78
2022-12-15T16:05:14.358Z,85.28
2022-12-15T16:07:46.688Z,90.75
2022-12-15T16:10:18.370Z,91.43
2022-12-15T16:12:49.633Z,81.28
2022-12-15T16:15:18.081Z,81.07
2022-12-15T16:17:44.625Z,71.95
2022-12-15T16:20:12.682Z,79.25
2022-12-15T16:22:39.578Z,77.95
2022-12-15T16:25:06.356Z,84.28
2022-12-15T16:27:32.656Z,78.18
2022-12-15T16:29:58.967Z,77.05
2022-12-15T16:32:25.402Z,72.90
2022-12-15T16:34:54.657Z,71.18
2022-12-15T16:37:25.981Z,71.20
2022-12-15T16:39:52.876Z,69.55
2022-12-15T16:42:19.203Z,72.63
2022-12-15T16:44:45.537Z,68.45
2022-12-15T16:47:11.863Z,69.75
2022-12-15T16:49:40.331Z,68.45
2022-12-15T16:52:12.015Z,66.15
2022-12-15T16:54:39.856Z,69.20
2022-12-15T16:57:06.293Z,72.40
2022-12-15T16:59:34.184Z,62.53
2022-12-15T17:02:02.110Z,70.55
2022-12-15T17:04:28.657Z,67.13
2022-12-15T17:06:55.033Z,68.75
2022-12-15T17:09:23.438Z,61.22
2022-12-15T17:11:50.155Z,54.13
2022-12-15T17:14:16.687Z,52.55
2022-12-15T17:16:43.312Z,60.63
2022-12-15T17:19:09.673Z,64.53
2022-12-15T17:21:43.044Z,60.35
2022-12-15T17:26:36.624Z,60.47
2022-12-15T17:29:07.857Z,55.95
2022-12-15T17:31:35.984Z,55.65
2022-12-15T17:34:22.952Z,55.55
2022-12-15T17:36:50.684Z,48.80
2022-12-15T17:39:18.526Z,53.72
2022-12-15T17:42:01.735Z,59.47
2022-12-15T17:44:35.680Z,72.90
2022-12-15T17:47:03.773Z,64.57
2022-12-15T17:49:35.642Z,64.32
2022-12-15T17:52:04.353Z,46.63
2022-12-15T17:54:30.692Z,54.80
2022-12-15T17:56:56.998Z,53.90
2022-12-15T17:59:23.323Z,53.88
2022-12-15T18:01:49.745Z,56.58
2022-12-15T18:04:16.262Z,53.83
2022-12-15T18:06:43.347Z,66.13
2022-12-15T18:09:14.912Z,83.28
2022-12-15T18:11:43.088Z,70.90
2022-12-15T18:14:12.615Z,69.45
2022-12-15T18:16:38.931Z,71.68
2022-12-15T18:19:05.566Z,62.15
2022-12-15T18:21:31.966Z,65.88
2022-12-15T18:23:58.264Z,77.68
2022-12-15T18:26:24.539Z,73.82
2022-12-15T18:28:50.900Z,66.90
2022-12-15T18:31:17.712Z,67.78
2022-12-15T18:33:44.489Z,68.93
2022-12-15T18:36:11.155Z,66.05
2022-12-15T18:38:37.561Z,66.38
2022-12-15T18:41:04.278Z,72.65
2022-12-15T18:43:32.348Z,73.45
2022-12-15T18:45:59.339Z,66.05
2022-12-15T18:48:29.865Z,71.20
2022-12-15T18:50:57.125Z,54.42
2022-12-15T18:53:28.139Z,64.68
2022-12-15T18:55:55.028Z,68.57
2022-12-15T18:58:27.222Z,60.95
2022-12-15T19:00:54.298Z,61.05
2022-12-15T19:03:21.305Z,55.53
2022-12-15T19:05:48.311Z,56.00
2022-12-15T19:08:20.074Z,64.28
2022-12-15T19:10:50.859Z,62.40
2022-12-15T19:13:18.226Z,70.35
2022-12-15T19:15:44.909Z,73.43
2022-12-15T19:18:31.630Z,71.20
2022-12-15T19:21:16.450Z,67.10
2022-12-15T19:23:42.794Z,63.90
2022-12-15T19:26:11.252Z,75.72
2022-12-15T19:28:37.564Z,74.63
2022-12-15T19:31:03.910Z,54.65
2022-12-15T19:33:30.485Z,56.55
2022-12-15T19:35:57.445Z,52.22
2022-12-15T19:38:28.713Z,56.42
2022-12-15T19:40:56.212Z,50.28
2022-12-15T19:43:23.282Z,48.03
2022-12-15T19:45:51.791Z,51.03
2022-12-15T19:48:23.403Z,50.30
2022-12-15T19:50:51.773Z,52.40
2022-12-15T19:53:26.249Z,53.70
2022-12-15T19:55:53.955Z,52.40
2022-12-15T19:58:27.147Z,49.20
2022-12-15T20:00:58.857Z,54.28
2022-12-15T20:03:25.611Z,54.53
2022-12-15T20:05:52.793Z,59.60
2022-12-15T20:08:23.891Z,59.35
2022-12-15T20:10:50.897Z,58.60
2022-12-15T20:13:17.581Z,55.55
2022-12-15T20:15:43.960Z,50.85
2022-12-15T20:18:10.285Z,51.05
2022-12-15T20:20:37.425Z,52.78
2022-12-15T20:23:12.197Z,47.35
2022-12-15T20:25:40.255Z,48.20
2022-12-15T20:28:10.291Z,49.55
2022-12-15T20:30:37.007Z,52.03
2022-12-15T20:33:03.989Z,48.03
2022-12-15T20:35:32.990Z,49.70
2022-12-15T20:38:00.180Z,45.97
2022-12-15T20:40:27.976Z,49.70
2022-12-15T20:42:54.813Z,60.42
2022-12-15T20:45:23.001Z,51.15
2022-12-15T20:47:50.847Z,49.92
2022-12-15T20:50:23.293Z,49.40
2022-12-15T20:52:49.640Z,58.58
2022-12-15T20:55:18.184Z,49.38
2022-12-15T20:57:44.681Z,45.67
2022-12-15T21:00:15.596Z,48.67
2022-12-15T21:02:43.163Z,43.35
2022-12-15T21:05:14.745Z,50.80
2022-12-15T21:07:42.324Z,46.42
2022-12-15T21:10:09.509Z,53.05
2022-12-15T21:12:35.818Z,51.33
2022-12-15T21:15:02.150Z,48.55
2022-12-15T21:17:28.961Z,44.72
2022-12-15T21:19:56.287Z,49.33
2022-12-15T21:22:25.056Z,42.60
2022-12-15T21:24:52.689Z,44.05
2022-12-15T21:27:20.047Z,46.30
2022-12-15T21:29:52.361Z,45.50
2022-12-15T21:32:19.616Z,49.33
2022-12-15T21:34:45.942Z,48.08
2022-12-15T21:37:19.539Z,44.50
2022-12-15T21:39:45.856Z,41.40
2022-12-15T21:42:13.563Z,46.00
2022-12-15T21:44:39.860Z,48.33
2022-12-15T21:47:21.783Z,54.80
2022-12-15T21:49:48.086Z,45.97
2022-12-15T21:52:15.165Z,48.03
2022-12-15T21:54:41.536Z,49.50
2022-12-15T21:57:11.412Z,58.35
2022-12-15T21:59:38.051Z,51.78
2022-12-15T22:02:24.167Z,56.13
2022-12-15T22:04:51.772Z,55.97
2022-12-15T22:07:18.151Z,51.67
2022-12-15T22:09:44.575Z,44.72
2022-12-15T22:12:21.266Z,50.85
2022-12-15T22:14:47.624Z,44.42
2022-12-15T22:17:18.617Z,46.80
2022-12-15T22:19:45.512Z,44.50
2022-12-15T22:22:12.262Z,48.00
2022-12-15T22:24:39.229Z,46.10
2022-12-15T22:27:06.096Z,40.00
2022-12-15T22:29:32.544Z,48.85
2022-12-15T22:31:58.853Z,44.78
2022-12-15T22:34:26.528Z,44.03
2022-12-15T22:36:53.017Z,41.75
2022-12-15T22:39:21.389Z,47.25
2022-12-15T22:41:49.755Z,39.17
2022-12-15T22:44:19.127Z,43.28
2022-12-15T22:46:45.572Z,42.80
2022-12-15T22:49:16.856Z,46.65
2022-12-15T22:51:43.458Z,47.00
2022-12-15T22:54:19.962Z,42.95
2022-12-15T22:56:49.044Z,42.58
2022-12-15T22:59:18.947Z,42.28
2022-12-15T23:01:45.287Z,45.00
2022-12-15T23:04:11.707Z,43.15
2022-12-15T23:06:38.041Z,43.42
2022-12-15T23:09:04.487Z,46.40
2022-12-15T23:11:38.130Z,45.75
2022-12-15T23:14:14.745Z,41.03
2022-12-15T23:16:41.644Z,42.17
2022-12-15T23:19:08.388Z,43.15
2022-12-15T23:21:35.463Z,41.17
2022-12-15T23:24:01.853Z,39.50
2022-12-15T23:26:28.220Z,44.35
2022-12-15T23:28:55.225Z,39.97
2022-12-15T23:31:21.937Z,36.28
2022-12-15T23:33:48.532Z,41.97
2022-12-15T23:36:14.924Z,43.97
2022-12-15T23:38:41.319Z,34.97
2022-12-15T23:41:07.730Z,37.17
2022-12-15T23:43:35.189Z,38.83
2022-12-15T23:46:03.377Z,41.15
2022-12-15T23:48:31.519Z,37.97
2022-12-15T23:51:27.178Z,39.38
2022-12-15T23:53:53.501Z,36.75
2022-12-15T23:56:22.668Z,34.97
2022-12-15T23:58:53.996Z,38.47
